createdAt,value
2018-06-19T00:00:23.927Z,72.42
2018-06-19T00:01:23.953Z,72.00
2018-06-19T00:03:16.885Z,72.19
2018-06-19T00:04:16.888Z,72.38
2018-06-19T00:06:09.802Z,72.09
2018-06-19T00:07:09.832Z,72.67
2018-06-19T00:09:02.759Z,72.19
2018-06-19T00:10:02.763Z,72.67
2018-06-19T00:11:55.701Z,72.58
2018-06-19T00:12:55.702Z,72.48
2018-06-19T00:14:48.620Z,72.38
2018-06-19T00:15:48.647Z,72.38
2018-06-19T00:17:41.580Z,72.38
2018-06-19T00:18:41.580Z,72.48
2018-06-19T00:20:34.501Z,72.19
2018-06-19T00:21:34.525Z,72.67
2018-06-19T00:23:27.458Z,72.48
2018-06-19T00:24:27.459Z,72.38
2018-06-19T00:26:20.370Z,72.09
2018-06-19T00:27:20.394Z,72.19
2018-06-19T00:29:13.328Z,72.96
2018-06-19T00:30:13.330Z,73.15
2018-06-19T00:32:06.270Z,72.92
2018-06-19T00:33:06.275Z,72.83
2018-06-19T00:34:59.184Z,73.11
2018-06-19T00:35:59.209Z,73.50
2018-06-19T00:37:52.147Z,73.50
2018-06-19T00:38:52.153Z,73.41
2018-06-19T00:40:45.059Z,73.50
2018-06-19T00:41:45.093Z,73.98
2018-06-19T00:43:38.028Z,73.98
2018-06-19T00:44:38.020Z,73.79
2018-06-19T00:46:30.934Z,74.37
2018-06-19T00:47:30.957Z,74.37
2018-06-19T00:49:23.902Z,74.46
2018-06-19T00:50:23.902Z,74.37
2018-06-19T00:52:16.840Z,74.43
2018-06-19T00:53:16.845Z,75.00
2018-06-19T00:55:09.755Z,74.71
2018-06-19T00:56:09.778Z,75.38
2018-06-19T00:58:02.713Z,74.90
2018-06-19T00:59:02.722Z,75.29
2018-06-19T01:00:55.631Z,75.38
2018-06-19T01:01:55.655Z,75.20
2018-06-19T01:03:48.586Z,75.77
2018-06-19T01:04:48.590Z,75.87
2018-06-19T01:06:41.501Z,75.48
2018-06-19T01:07:41.524Z,75.20
2018-06-19T01:09:34.461Z,75.77
2018-06-19T01:10:34.462Z,75.77
2018-06-19T01:12:27.394Z,75.57
2018-06-19T01:13:27.399Z,75.87
2018-06-19T01:15:20.317Z,76.34
2018-06-19T01:16:20.341Z,76.40
2018-06-19T01:18:13.277Z,76.31
2018-06-19T01:19:13.279Z,76.50
2018-06-19T01:21:06.190Z,76.98
2018-06-19T01:22:06.213Z,76.69
2018-06-19T01:23:59.147Z,76.59
2018-06-19T01:24:59.150Z,76.69
2018-06-19T01:26:52.064Z,77.46
2018-06-19T01:27:52.088Z,77.36
2018-06-19T01:29:45.019Z,76.98
2018-06-19T01:30:45.023Z,77.26
2018-06-19T01:32:37.951Z,76.69
2018-06-19T01:33:37.956Z,77.46
2018-06-19T01:35:30.872Z,77.65
2018-06-19T01:36:30.892Z,77.46
2018-06-19T01:38:23.829Z,77.17
2018-06-19T01:39:23.837Z,77.56
2018-06-19T01:41:16.745Z,77.36
2018-06-19T01:42:16.768Z,77.36
2018-06-19T01:44:09.704Z,77.26
2018-06-19T01:45:09.705Z,77.17
2018-06-19T01:47:02.619Z,77.21
2018-06-19T01:48:02.641Z,77.40
2018-06-19T01:49:55.578Z,77.46
2018-06-19T01:50:55.576Z,77.40
2018-06-19T01:52:48.489Z,76.73
2018-06-19T01:53:48.512Z,77.26
2018-06-19T01:55:41.447Z,76.98
2018-06-19T01:56:41.451Z,76.88
2018-06-19T01:58:34.399Z,77.36
2018-06-19T01:59:34.384Z,77.36
2018-06-19T02:01:27.299Z,77.08
2018-06-19T02:02:27.325Z,77.01
2018-06-19T02:04:20.257Z,77.21
2018-06-19T02:05:20.260Z,77.40
2018-06-19T02:07:13.174Z,77.11
2018-06-19T02:08:13.196Z,77.21
2018-06-19T02:10:06.131Z,77.40
2018-06-19T02:11:06.152Z,77.01
2018-06-19T02:12:59.047Z,76.54
2018-06-19T02:13:59.072Z,76.73
2018-06-19T02:15:52.008Z,77.01
2018-06-19T02:16:52.010Z,76.64
2018-06-19T02:18:44.924Z,76.64
2018-06-19T02:19:44.948Z,77.01
2018-06-19T02:21:37.880Z,76.92
2018-06-19T02:22:37.880Z,76.92
2018-06-19T02:24:30.827Z,76.15
2018-06-19T02:25:30.826Z,76.34
2018-06-19T02:27:24.732Z,76.39
2018-06-19T02:28:24.754Z,76.67
2018-06-19T02:30:17.689Z,76.39
2018-06-19T02:31:17.696Z,76.19
2018-06-19T02:33:10.606Z,76.09
2018-06-19T02:34:10.629Z,75.90
2018-06-19T02:36:04.559Z,76.19
2018-06-19T02:37:04.561Z,76.48
2018-06-19T02:38:57.476Z,76.19
2018-06-19T02:39:57.498Z,75.62
2018-06-19T02:41:50.446Z,76.39
2018-06-19T02:42:50.448Z,76.48
2018-06-19T02:44:43.377Z,76.39
2018-06-19T02:45:43.378Z,76.57
2018-06-19T02:47:36.292Z,76.44
2018-06-19T02:48:36.315Z,76.54
2018-06-19T02:50:29.255Z,76.34
2018-06-19T02:51:29.260Z,76.39
2018-06-19T02:53:22.180Z,76.48
2018-06-19T02:54:22.206Z,76.19
2018-06-19T02:56:15.143Z,76.39
2018-06-19T02:57:15.142Z,75.67
2018-06-19T02:59:08.057Z,76.29
2018-06-19T03:00:08.088Z,76.09
2018-06-19T03:02:01.019Z,75.71
2018-06-19T03:03:01.023Z,75.90
2018-06-19T03:04:54.997Z,75.62
2018-06-19T03:05:55.017Z,75.32
2018-06-19T03:07:47.952Z,75.81
2018-06-19T03:08:47.954Z,75.71
2018-06-19T03:10:41.884Z,75.52
2018-06-19T03:11:41.888Z,75.52
2018-06-19T03:13:34.806Z,75.23
2018-06-19T03:14:34.834Z,75.32
2018-06-19T03:16:27.763Z,75.04
2018-06-19T03:17:27.767Z,74.94
2018-06-19T03:19:20.685Z,75.04
2018-06-19T03:20:20.709Z,75.32
2018-06-19T03:22:13.648Z,75.52
2018-06-19T03:23:13.646Z,75.42
2018-06-19T03:25:06.559Z,75.42
2018-06-19T03:26:06.581Z,75.32
2018-06-19T03:27:59.531Z,74.55
2018-06-19T03:28:59.526Z,75.62
2018-06-19T03:30:52.461Z,75.13
2018-06-19T03:31:52.464Z,74.75
2018-06-19T03:33:45.382Z,74.55
2018-06-19T03:34:45.401Z,75.13
2018-06-19T03:36:38.333Z,75.04
2018-06-19T03:37:38.335Z,74.85
2018-06-19T03:39:31.249Z,74.08
2018-06-19T03:40:31.272Z,74.37
2018-06-19T03:42:24.209Z,74.55
2018-06-19T03:43:24.218Z,74.27
2018-06-19T03:45:17.122Z,74.37
2018-06-19T03:46:17.150Z,74.27
2018-06-19T03:48:10.082Z,74.27
2018-06-19T03:49:10.089Z,74.37
2018-06-19T03:51:03.003Z,74.27
2018-06-19T03:52:03.030Z,74.17
2018-06-19T03:53:55.963Z,74.85
2018-06-19T03:54:55.964Z,74.55
2018-06-19T03:56:48.898Z,75.13
2018-06-19T03:57:48.902Z,74.65
2018-06-19T03:59:41.817Z,75.71
2018-06-19T04:00:41.840Z,75.42
2018-06-19T04:02:34.774Z,74.65
2018-06-19T04:03:34.776Z,75.42
2018-06-19T04:05:27.691Z,75.52
2018-06-19T04:06:27.712Z,75.81
2018-06-19T04:08:20.649Z,75.62
2018-06-19T04:09:20.657Z,75.81
2018-06-19T04:11:13.575Z,76.00
2018-06-19T04:12:13.596Z,76.39
2018-06-19T04:14:06.524Z,75.81
2018-06-19T04:15:06.528Z,75.81
2018-06-19T04:16:59.475Z,75.90
2018-06-19T04:17:59.464Z,76.06
2018-06-19T04:19:52.380Z,76.67
2018-06-19T04:20:52.403Z,75.96
2018-06-19T04:22:45.337Z,75.20
2018-06-19T04:23:45.340Z,75.71
2018-06-19T04:25:38.255Z,75.52
2018-06-19T04:26:38.277Z,75.23
2018-06-19T04:28:31.214Z,75.32
2018-06-19T04:29:31.217Z,75.04
2018-06-19T04:31:24.128Z,75.52
2018-06-19T04:32:24.157Z,75.32
2018-06-19T04:34:17.087Z,74.75
2018-06-19T04:35:17.133Z,75.42
2018-06-19T04:37:10.001Z,74.75
2018-06-19T04:38:10.025Z,75.52
2018-06-19T04:40:02.958Z,75.52
2018-06-19T04:41:02.961Z,75.13
2018-06-19T04:42:55.878Z,75.32
2018-06-19T04:43:55.902Z,75.13
2018-06-19T04:45:48.845Z,75.52
2018-06-19T04:46:48.845Z,74.46
2018-06-19T04:48:41.777Z,74.65
2018-06-19T04:49:41.819Z,74.21
2018-06-19T04:51:34.692Z,74.40
2018-06-19T04:52:34.716Z,74.21
2018-06-19T04:54:27.651Z,74.60
2018-06-19T04:55:27.653Z,74.50
2018-06-19T04:57:20.564Z,74.40
2018-06-19T04:58:20.588Z,73.63
2018-06-19T05:00:13.525Z,74.02
2018-06-19T05:01:13.527Z,74.02
2018-06-19T05:03:06.442Z,73.83
2018-06-19T05:04:06.464Z,73.92
2018-06-19T05:05:59.398Z,73.63
2018-06-19T05:06:59.401Z,74.30
2018-06-19T05:08:52.337Z,74.21
2018-06-19T05:09:52.346Z,74.40
2018-06-19T05:11:45.254Z,73.83
2018-06-19T05:12:45.302Z,73.83
2018-06-19T05:14:38.221Z,74.50
2018-06-19T05:15:38.224Z,74.60
2018-06-19T05:17:31.135Z,75.37
2018-06-19T05:18:31.164Z,75.27
2018-06-19T05:20:24.098Z,75.37
2018-06-19T05:21:24.099Z,75.27
2018-06-19T05:23:17.022Z,75.56
2018-06-19T05:24:17.045Z,75.17
2018-06-19T05:26:09.984Z,75.56
2018-06-19T05:27:09.991Z,74.88
2018-06-19T05:29:02.905Z,75.17
2018-06-19T05:30:02.929Z,74.60
2018-06-19T05:31:55.864Z,75.46
2018-06-19T05:32:55.872Z,75.27
2018-06-19T05:34:48.805Z,74.60
2018-06-19T05:35:48.812Z,74.60
2018-06-19T05:37:41.722Z,74.25
2018-06-19T05:38:41.746Z,73.96
2018-06-19T05:40:34.809Z,73.09
2018-06-19T05:41:34.811Z,72.90
2018-06-19T05:43:27.732Z,73.28
2018-06-19T05:44:27.757Z,73.19
2018-06-19T05:46:20.731Z,72.23
2018-06-19T05:47:20.702Z,72.32
2018-06-19T05:49:13.614Z,73.00
2018-06-19T05:50:13.639Z,72.90
2018-06-19T05:52:06.583Z,73.19
2018-06-19T05:53:06.588Z,72.52
2018-06-19T05:54:59.522Z,72.42
2018-06-19T05:55:59.526Z,72.55
2018-06-19T05:57:52.442Z,72.55
2018-06-19T05:58:52.466Z,72.55
2018-06-19T06:00:45.412Z,72.45
2018-06-19T06:01:45.415Z,71.69
2018-06-19T06:03:38.332Z,71.78
2018-06-19T06:04:38.361Z,71.88
2018-06-19T06:06:31.296Z,71.88
2018-06-19T06:07:31.303Z,71.88
2018-06-19T06:09:24.218Z,71.78
2018-06-19T06:10:24.246Z,72.36
2018-06-19T06:12:17.178Z,71.69
2018-06-19T06:13:17.192Z,72.17
2018-06-19T06:15:10.140Z,72.36
2018-06-19T06:16:10.130Z,72.45
2018-06-19T06:18:03.044Z,72.26
2018-06-19T06:19:03.073Z,72.45
2018-06-19T06:20:56.006Z,71.59
2018-06-19T06:21:56.014Z,71.88
2018-06-19T06:23:48.928Z,72.07
2018-06-19T06:24:48.957Z,71.59
2018-06-19T06:26:41.890Z,72.17
2018-06-19T06:27:41.899Z,72.36
2018-06-19T06:29:34.812Z,72.17
2018-06-19T06:30:34.843Z,72.07
2018-06-19T06:32:27.773Z,71.78
2018-06-19T06:33:27.781Z,72.36
2018-06-19T06:35:20.696Z,72.36
2018-06-19T06:36:20.720Z,72.45
2018-06-19T06:38:13.666Z,71.69
2018-06-19T06:39:13.668Z,71.78
2018-06-19T06:41:06.607Z,72.17
2018-06-19T06:42:06.613Z,72.17
2018-06-19T06:43:59.529Z,72.42
2018-06-19T06:44:59.557Z,72.32
2018-06-19T06:46:52.498Z,73.19
2018-06-19T06:47:52.498Z,73.47
2018-06-19T06:49:45.423Z,73.38
2018-06-19T06:50:45.448Z,73.96
2018-06-19T06:52:38.395Z,73.47
2018-06-19T06:53:38.395Z,73.38
2018-06-19T06:55:31.315Z,74.34
2018-06-19T06:56:31.343Z,73.67
2018-06-19T06:58:24.276Z,74.15
2018-06-19T06:59:24.288Z,73.67
2018-06-19T07:01:17.294Z,73.71
2018-06-19T07:02:17.227Z,74.09
2018-06-19T07:04:10.140Z,72.84
2018-06-19T07:05:10.169Z,73.22
2018-06-19T07:07:03.104Z,73.03
2018-06-19T07:08:03.111Z,73.22
2018-06-19T07:09:56.056Z,73.22
2018-06-19T07:10:56.055Z,73.42
2018-06-19T07:12:48.991Z,73.42
2018-06-19T07:13:48.997Z,73.51
2018-06-19T07:15:41.930Z,74.67
2018-06-19T07:16:41.942Z,74.48
2018-06-19T07:18:34.882Z,74.41
2018-06-19T07:19:34.887Z,74.03
2018-06-19T07:21:27.804Z,73.07
2018-06-19T07:22:27.877Z,72.43
2018-06-19T07:24:20.767Z,72.81
2018-06-19T07:25:20.776Z,72.63
2018-06-19T07:27:13.720Z,71.66
2018-06-19T07:28:13.722Z,71.50
2018-06-19T07:30:06.640Z,71.89
2018-06-19T07:31:06.668Z,71.79
2018-06-19T07:32:59.607Z,71.41
2018-06-19T07:33:59.613Z,70.73
2018-06-19T07:35:52.531Z,70.54
2018-06-19T07:36:52.676Z,70.35
2018-06-19T07:38:45.506Z,70.76
2018-06-19T07:39:45.509Z,70.48
2018-06-19T07:41:38.430Z,69.61
2018-06-19T07:42:38.455Z,69.51
2018-06-19T07:44:31.395Z,69.61
2018-06-19T07:45:31.403Z,69.80
2018-06-19T07:47:24.324Z,70.28
2018-06-19T07:48:24.351Z,70.19
2018-06-19T07:50:17.299Z,69.61
2018-06-19T07:51:17.300Z,69.61
2018-06-19T07:53:10.248Z,70.09
2018-06-19T07:54:10.248Z,69.42
2018-06-19T07:56:03.168Z,70.09
2018-06-19T07:57:03.196Z,70.19
2018-06-19T07:58:56.144Z,69.32
2018-06-19T07:59:56.143Z,69.42
2018-06-19T08:01:49.064Z,69.61
2018-06-19T08:02:49.093Z,69.80
2018-06-19T08:04:42.037Z,70.48
2018-06-19T08:05:42.039Z,69.87
2018-06-19T08:07:34.957Z,70.83
2018-06-19T08:08:34.989Z,70.64
2018-06-19T08:10:27.923Z,71.31
2018-06-19T08:11:27.933Z,71.41
2018-06-19T08:13:20.933Z,71.12
2018-06-19T08:14:20.879Z,71.22
2018-06-19T08:16:13.814Z,71.34
2018-06-19T08:17:13.822Z,71.15
2018-06-19T08:19:06.763Z,70.44
2018-06-19T08:20:06.769Z,71.44
2018-06-19T08:21:59.685Z,70.57
2018-06-19T08:22:59.714Z,70.28
2018-06-19T08:24:52.653Z,70.19
2018-06-19T08:25:52.661Z,70.19
2018-06-19T08:27:45.578Z,69.55
2018-06-19T08:28:45.607Z,69.61
2018-06-19T08:30:38.544Z,70.19
2018-06-19T08:31:38.552Z,70.48
2018-06-19T08:33:31.471Z,70.38
2018-06-19T08:34:31.498Z,70.70
2018-06-19T08:36:24.438Z,70.38
2018-06-19T08:37:24.445Z,70.48
2018-06-19T08:39:17.406Z,70.28
2018-06-19T08:40:17.394Z,70.67
2018-06-19T08:42:10.320Z,70.48
2018-06-19T08:43:10.342Z,70.38
2018-06-19T08:45:03.296Z,70.96
2018-06-19T08:46:03.297Z,70.67
2018-06-19T08:47:56.270Z,70.38
2018-06-19T08:48:56.250Z,70.32
2018-06-19T08:50:49.198Z,70.22
2018-06-19T08:51:49.200Z,70.42
2018-06-19T08:53:42.123Z,69.45
2018-06-19T08:54:42.150Z,69.35
2018-06-19T08:56:35.096Z,69.45
2018-06-19T08:57:35.096Z,69.84
2018-06-19T08:59:28.025Z,69.45
2018-06-19T09:00:28.050Z,69.84
2018-06-19T09:02:21.000Z,69.26
2018-06-19T09:03:21.005Z,69.45
2018-06-19T09:05:13.956Z,69.74
2018-06-19T09:06:13.961Z,69.74
2018-06-19T09:08:06.877Z,69.64
2018-06-19T09:09:06.905Z,70.13
2018-06-19T09:10:59.851Z,70.13
2018-06-19T09:11:59.852Z,70.13
2018-06-19T09:13:52.774Z,69.84
2018-06-19T09:14:52.801Z,69.84
2018-06-19T09:16:45.742Z,69.64
2018-06-19T09:17:45.746Z,70.13
2018-06-19T09:19:38.667Z,69.45
2018-06-19T09:20:38.694Z,69.68
2018-06-19T09:22:31.636Z,69.29
2018-06-19T09:23:31.643Z,69.10
2018-06-19T09:25:24.583Z,68.71
2018-06-19T09:26:24.593Z,69.00
2018-06-19T09:28:17.537Z,68.81
2018-06-19T09:29:17.541Z,68.87
2018-06-19T09:31:10.488Z,69.49
2018-06-19T09:32:10.490Z,69.45
2018-06-19T09:34:03.415Z,70.03
2018-06-19T09:35:03.441Z,70.22
2018-06-19T09:36:56.397Z,70.70
2018-06-19T09:37:56.391Z,70.51
2018-06-19T09:39:49.320Z,70.32
2018-06-19T09:40:49.338Z,70.22
2018-06-19T09:42:42.289Z,70.26
2018-06-19T09:43:42.292Z,70.26
2018-06-19T09:45:35.214Z,69.68
2018-06-19T09:46:35.242Z,69.10
2018-06-19T09:48:28.190Z,68.17
2018-06-19T09:49:28.192Z,68.55
2018-06-19T09:51:21.119Z,68.94
2018-06-19T09:52:21.146Z,68.52
2018-06-19T09:54:14.095Z,68.43
2018-06-19T09:55:14.104Z,68.46
2018-06-19T09:57:07.057Z,68.07
2018-06-19T09:58:07.054Z,68.07
2018-06-19T09:59:59.978Z,67.88
2018-06-19T10:01:00.005Z,67.78
2018-06-19T10:02:52.955Z,67.59
2018-06-19T10:03:52.962Z,67.69
2018-06-19T10:05:45.944Z,67.97
2018-06-19T10:06:45.917Z,67.49
2018-06-19T10:08:38.867Z,67.40
2018-06-19T10:09:38.868Z,67.49
2018-06-19T10:11:31.799Z,67.78
2018-06-19T10:12:31.824Z,67.59
2018-06-19T10:14:24.773Z,67.59
2018-06-19T10:15:24.775Z,67.49
2018-06-19T10:17:17.730Z,67.78
2018-06-19T10:18:17.728Z,67.30
2018-06-19T10:20:10.654Z,67.49
2018-06-19T10:21:10.682Z,67.59
2018-06-19T10:23:03.630Z,67.30
2018-06-19T10:24:03.631Z,67.01
2018-06-19T10:25:56.608Z,67.43
2018-06-19T10:26:56.587Z,67.33
2018-06-19T10:28:49.539Z,67.43
2018-06-19T10:29:49.539Z,66.94
2018-06-19T10:31:42.469Z,67.08
2018-06-19T10:32:42.497Z,67.08
2018-06-19T10:34:35.449Z,65.53
2018-06-19T10:35:35.448Z,65.72
2018-06-19T10:37:28.376Z,64.79
2018-06-19T10:38:28.404Z,64.59
2018-06-19T10:40:21.386Z,64.59
2018-06-19T10:41:21.392Z,64.04
2018-06-19T10:43:14.337Z,64.11
2018-06-19T10:44:14.350Z,63.73
2018-06-19T10:46:07.768Z,64.50
2018-06-19T10:47:07.797Z,65.27
2018-06-19T10:49:00.747Z,64.59
2018-06-19T10:50:00.755Z,65.01
2018-06-19T10:51:53.686Z,64.04
2018-06-19T10:52:53.718Z,63.85
2018-06-19T10:54:46.665Z,63.56
2018-06-19T10:55:46.672Z,62.59
2018-06-19T10:57:39.597Z,63.27
2018-06-19T10:58:39.628Z,63.85
2018-06-19T11:00:32.573Z,63.37
2018-06-19T11:01:32.582Z,63.56
2018-06-19T11:03:25.509Z,63.37
2018-06-19T11:04:25.536Z,63.27
2018-06-19T11:06:18.516Z,63.66
2018-06-19T11:07:18.584Z,63.27
2018-06-19T11:09:11.446Z,63.21
2018-06-19T11:10:11.453Z,62.72
2018-06-19T11:12:04.386Z,62.53
2018-06-19T11:13:04.414Z,62.43
2018-06-19T11:14:57.360Z,62.53
2018-06-19T11:15:57.371Z,62.82
2018-06-19T11:17:50.301Z,62.63
2018-06-19T11:18:50.332Z,62.63
2018-06-19T11:20:43.275Z,62.72
2018-06-19T11:21:43.288Z,62.14
2018-06-19T11:23:36.215Z,62.53
2018-06-19T11:24:36.247Z,62.24
2018-06-19T11:26:29.197Z,63.56
2018-06-19T11:27:29.206Z,62.63
2018-06-19T11:29:22.168Z,62.98
2018-06-19T11:30:22.163Z,63.56
2018-06-19T11:32:15.092Z,63.69
2018-06-19T11:33:15.124Z,63.40
2018-06-19T11:35:08.075Z,63.59
2018-06-19T11:36:08.084Z,63.11
2018-06-19T11:38:01.017Z,62.46
2018-06-19T11:39:01.049Z,62.17
2018-06-19T11:40:54.001Z,61.69
2018-06-19T11:41:54.009Z,61.21
2018-06-19T11:43:46.939Z,61.30
2018-06-19T11:44:47.043Z,60.82
2018-06-19T11:46:39.922Z,60.85
2018-06-19T11:47:39.929Z,60.46
2018-06-19T11:49:32.861Z,60.85
2018-06-19T11:50:32.893Z,60.65
2018-06-19T11:52:25.842Z,60.65
2018-06-19T11:53:25.852Z,60.65
2018-06-19T11:55:18.785Z,60.68
2018-06-19T11:56:18.819Z,59.91
2018-06-19T11:58:12.260Z,60.39
2018-06-19T11:59:12.271Z,59.81
2018-06-19T12:01:05.284Z,59.71
2018-06-19T12:02:05.230Z,59.64
2018-06-19T12:03:58.159Z,59.94
2018-06-19T12:04:58.197Z,59.26
2018-06-19T12:06:51.144Z,59.03
2018-06-19T12:07:51.152Z,59.84
2018-06-19T12:09:44.083Z,60.13
2018-06-19T12:10:44.115Z,59.74
2018-06-19T12:12:37.066Z,58.97
2018-06-19T12:13:37.075Z,58.48
2018-06-19T12:15:30.004Z,58.58
2018-06-19T12:16:30.036Z,58.09
2018-06-19T12:18:22.989Z,58.70
2018-06-19T12:19:22.996Z,58.22
2018-06-19T12:21:15.953Z,57.64
2018-06-19T12:22:15.962Z,58.45
2018-06-19T12:24:08.944Z,59.61
2018-06-19T12:25:08.925Z,60.00
2018-06-19T12:27:01.880Z,60.30
2018-06-19T12:28:01.891Z,60.58
2018-06-19T12:29:54.833Z,60.30
2018-06-19T12:30:54.861Z,59.91
2018-06-19T12:32:47.809Z,60.00
2018-06-19T12:33:47.820Z,60.58
2018-06-19T12:35:40.753Z,60.85
2018-06-19T12:36:40.780Z,60.65
2018-06-19T12:38:33.733Z,60.65
2018-06-19T12:39:33.740Z,60.46
2018-06-19T12:41:26.671Z,60.85
2018-06-19T12:42:26.698Z,61.04
2018-06-19T12:44:19.645Z,60.85
2018-06-19T12:45:19.658Z,60.78
2018-06-19T12:47:13.099Z,60.10
2018-06-19T12:48:13.113Z,60.23
2018-06-19T12:50:06.041Z,59.19
2018-06-19T12:51:06.077Z,58.03
2018-06-19T12:52:59.026Z,58.34
2018-06-19T12:53:59.041Z,58.44
2018-06-19T12:55:51.969Z,56.52
2018-06-19T12:56:52.003Z,56.01
2018-06-19T12:58:44.956Z,56.76
2018-06-19T12:59:44.969Z,58.29
2018-06-19T13:01:37.902Z,59.74
2018-06-19T13:02:37.934Z,60.32
2018-06-19T13:04:30.903Z,59.58
2018-06-19T13:05:30.902Z,58.80
2018-06-19T13:07:23.854Z,58.15
2018-06-19T13:08:23.865Z,58.05
2018-06-19T13:10:16.799Z,56.60
2018-06-19T13:11:16.839Z,56.79
2018-06-19T13:13:09.782Z,56.60
2018-06-19T13:14:09.792Z,56.89
2018-06-19T13:16:03.216Z,56.79
2018-06-19T13:17:03.250Z,56.98
2018-06-19T13:18:56.692Z,56.50
2018-06-19T13:19:56.712Z,56.40
2018-06-19T13:21:50.132Z,56.79
2018-06-19T13:22:50.164Z,56.82
2018-06-19T13:24:43.118Z,55.75
2018-06-19T13:25:43.126Z,55.55
2018-06-19T13:27:36.056Z,55.73
2018-06-19T13:28:36.090Z,56.52
2018-06-19T13:30:29.043Z,56.52
2018-06-19T13:31:29.054Z,56.82
2018-06-19T13:33:22.009Z,56.52
2018-06-19T13:34:22.022Z,55.65
2018-06-19T13:36:16.442Z,56.01
2018-06-19T13:37:16.474Z,56.60
2018-06-19T13:39:09.429Z,56.70
2018-06-19T13:40:09.436Z,56.79
2018-06-19T13:42:02.427Z,57.50
2018-06-19T13:43:02.403Z,56.24
2018-06-19T13:44:55.358Z,55.36
2018-06-19T13:45:55.361Z,55.46
2018-06-19T13:47:48.295Z,55.46
2018-06-19T13:48:48.324Z,55.49
2018-06-19T13:50:41.280Z,55.39
2018-06-19T13:51:41.292Z,54.22
2018-06-19T13:53:34.346Z,53.71
2018-06-19T13:54:34.358Z,53.74
2018-06-19T13:56:27.388Z,55.55
2018-06-19T13:57:27.544Z,56.24
2018-06-19T13:59:20.456Z,56.24
2018-06-19T14:00:20.473Z,56.72
2018-06-19T14:02:13.915Z,55.55
2018-06-19T14:03:13.943Z,55.27
2018-06-19T14:05:06.979Z,55.46
2018-06-19T14:06:06.993Z,56.24
2018-06-19T14:08:00.122Z,56.72
2018-06-19T14:09:00.051Z,56.43
2018-06-19T14:10:53.115Z,55.85
2018-06-19T14:11:53.111Z,54.97
2018-06-19T14:13:46.153Z,54.78
2018-06-19T14:14:46.165Z,55.36
2018-06-19T14:16:39.209Z,54.88
2018-06-19T14:17:39.223Z,55.27
2018-06-19T14:19:32.268Z,55.55
2018-06-19T14:20:32.281Z,55.55
2018-06-19T14:22:25.302Z,54.85
2018-06-19T14:23:25.346Z,55.43
2018-06-19T14:25:18.398Z,56.57
2018-06-19T14:26:18.388Z,56.18
2018-06-19T14:28:11.413Z,56.74
2018-06-19T14:29:11.446Z,57.12
2018-06-19T14:31:04.489Z,57.58
2018-06-19T14:32:04.499Z,58.29
2018-06-19T14:33:57.526Z,57.97
2018-06-19T14:34:57.557Z,58.55
2018-06-19T14:36:50.603Z,59.03
2018-06-19T14:37:50.616Z,58.94
2018-06-19T14:39:43.639Z,58.55
2018-06-19T14:40:43.671Z,58.55
2018-06-19T14:42:36.716Z,58.48
2018-06-19T14:43:36.725Z,58.97
2018-06-19T14:45:29.773Z,58.58
2018-06-19T14:46:29.782Z,58.39
2018-06-19T14:48:22.874Z,57.61
2018-06-19T14:49:22.846Z,58.03
2018-06-19T14:51:15.883Z,58.03
2018-06-19T14:52:15.896Z,57.57
2018-06-19T14:54:09.331Z,57.47
2018-06-19T14:55:09.361Z,56.92
2018-06-19T14:57:02.426Z,56.82
2018-06-19T14:58:02.429Z,56.34
2018-06-19T14:59:56.477Z,56.24
2018-06-19T15:00:56.514Z,54.97
2018-06-19T15:02:52.525Z,54.80
2018-06-19T15:03:52.540Z,54.13
2018-06-19T15:05:45.600Z,54.42
2018-06-19T15:06:45.596Z,54.13
2018-06-19T15:08:50.076Z,54.49
2018-06-19T15:09:48.658Z,54.49
2018-06-19T15:11:41.600Z,55.17
2018-06-19T15:12:41.607Z,55.53
2018-06-19T15:14:34.563Z,56.11
2018-06-19T15:15:34.587Z,56.50
2018-06-19T15:17:27.537Z,56.60
2018-06-19T15:18:27.604Z,56.76
2018-06-19T15:20:20.474Z,57.15
2018-06-19T15:21:20.504Z,57.34
2018-06-19T15:23:13.457Z,58.29
2018-06-19T15:24:13.465Z,57.90
2018-06-19T15:26:06.415Z,59.06
2018-06-19T15:27:06.420Z,58.77
2018-06-19T15:28:59.544Z,59.06
2018-06-19T15:29:59.574Z,59.45
2018-06-19T15:31:52.532Z,59.61
2018-06-19T15:32:52.553Z,59.55
2018-06-19T15:34:45.715Z,59.23
2018-06-19T15:35:45.761Z,59.71
2018-06-19T15:37:42.805Z,60.00
2018-06-19T15:38:40.217Z,60.49
2018-06-19T15:40:33.156Z,61.72
2018-06-19T15:41:33.202Z,61.72
2018-06-19T15:43:26.178Z,61.91
2018-06-19T15:44:26.163Z,61.72
2018-06-19T15:46:20.203Z,61.62
2018-06-19T15:47:19.112Z,61.30
2018-06-19T15:49:14.824Z,61.91
2018-06-19T15:50:14.833Z,61.98
2018-06-19T15:52:07.854Z,61.82
2018-06-19T15:53:07.835Z,61.79
2018-06-19T15:55:00.822Z,62.20
2018-06-19T15:56:00.787Z,61.62
2018-06-19T15:57:53.735Z,61.72
2018-06-19T15:58:53.789Z,61.52
2018-06-19T16:00:46.667Z,61.07
2018-06-19T16:01:46.697Z,60.88
2018-06-19T16:03:39.643Z,60.97
2018-06-19T16:04:39.650Z,60.68
2018-06-19T16:06:32.612Z,60.46
2018-06-19T16:07:32.601Z,60.85
2018-06-19T16:09:25.554Z,62.95
2018-06-19T16:10:25.559Z,63.69
2018-06-19T16:12:18.506Z,65.79
2018-06-19T16:13:18.511Z,66.37
2018-06-19T16:15:11.436Z,66.63
2018-06-19T16:16:11.460Z,67.01
2018-06-19T16:18:04.404Z,67.08
2018-06-19T16:19:04.410Z,67.56
2018-06-19T16:20:57.334Z,67.66
2018-06-19T16:21:57.372Z,67.56
2018-06-19T16:23:50.305Z,67.75
2018-06-19T16:24:50.312Z,67.56
2018-06-19T16:26:43.233Z,67.94
2018-06-19T16:27:43.295Z,67.56
2018-06-19T16:29:36.214Z,67.36
2018-06-19T16:30:36.210Z,67.17
2018-06-19T16:32:29.139Z,67.17
2018-06-19T16:33:29.160Z,67.11
2018-06-19T16:35:22.169Z,66.05
2018-06-19T16:36:22.115Z,66.05
2018-06-19T16:38:15.120Z,65.56
2018-06-19T16:39:15.132Z,64.89
2018-06-19T16:41:07.990Z,64.40
2018-06-19T16:42:08.018Z,64.31
2018-06-19T16:44:00.967Z,64.11
2018-06-19T16:45:00.971Z,64.98
2018-06-19T16:46:54.885Z,64.53
2018-06-19T16:47:54.916Z,64.43
2018-06-19T16:49:47.853Z,64.92
2018-06-19T16:50:47.865Z,63.85
2018-06-19T16:52:40.782Z,64.14
2018-06-19T16:53:40.844Z,64.04
2018-06-19T16:55:33.755Z,64.43
2018-06-19T16:56:33.760Z,64.53
2018-06-19T16:58:26.681Z,64.43
2018-06-19T16:59:26.710Z,64.34
2018-06-19T17:01:19.697Z,65.11
2018-06-19T17:02:19.659Z,65.11
2018-06-19T17:04:12.599Z,64.04
2018-06-19T17:05:12.610Z,64.47
2018-06-19T17:07:05.527Z,64.66
2018-06-19T17:08:05.558Z,64.43
2018-06-19T17:09:58.502Z,64.62
2018-06-19T17:10:58.509Z,64.14
2018-06-19T17:12:51.436Z,65.01
2018-06-19T17:13:51.653Z,65.11
2018-06-19T17:15:44.408Z,64.82
2018-06-19T17:16:44.414Z,65.50
2018-06-19T17:18:37.336Z,66.08
2018-06-19T17:19:37.364Z,66.08
2018-06-19T17:21:30.314Z,66.56
2018-06-19T17:22:30.317Z,65.88
2018-06-19T17:24:23.266Z,65.20
2018-06-19T17:25:23.267Z,65.40
2018-06-19T17:27:16.194Z,65.88
2018-06-19T17:28:16.219Z,66.08
2018-06-19T17:30:09.170Z,66.47
2018-06-19T17:31:09.171Z,66.47
2018-06-19T17:33:02.094Z,67.14
2018-06-19T17:34:02.125Z,67.24
2018-06-19T17:35:55.064Z,66.85
2018-06-19T17:36:55.073Z,67.24
2018-06-19T17:38:47.996Z,65.88
2018-06-19T17:39:48.023Z,66.08
2018-06-19T17:41:40.972Z,66.08
2018-06-19T17:42:40.974Z,66.27
2018-06-19T17:44:33.899Z,66.56
2018-06-19T17:45:33.926Z,65.79
2018-06-19T17:47:26.876Z,66.47
2018-06-19T17:48:26.882Z,65.66
2018-06-19T17:50:19.832Z,66.17
2018-06-19T17:51:19.835Z,67.14
2018-06-19T17:53:12.760Z,68.17
2018-06-19T17:54:12.791Z,69.10
2018-06-19T17:56:05.739Z,70.07
2018-06-19T17:57:05.744Z,70.62
2018-06-19T17:58:58.667Z,70.90
2018-06-19T17:59:58.695Z,71.64
2018-06-19T18:01:51.644Z,71.94
2018-06-19T18:02:51.652Z,72.71
2018-06-19T18:04:44.574Z,73.73
2018-06-19T18:05:44.603Z,74.12
2018-06-19T18:07:37.549Z,74.99
2018-06-19T18:08:37.552Z,75.09
2018-06-19T18:10:30.470Z,75.95
2018-06-19T18:11:30.499Z,75.27
2018-06-19T18:13:23.434Z,74.69
2018-06-19T18:14:23.439Z,74.89
2018-06-19T18:16:16.382Z,74.69
2018-06-19T18:17:16.388Z,74.69
2018-06-19T18:19:09.362Z,75.09
2018-06-19T18:20:09.339Z,74.21
2018-06-19T18:22:02.270Z,74.41
2018-06-19T18:23:02.279Z,73.63
2018-06-19T18:24:55.193Z,73.63
2018-06-19T18:25:55.223Z,73.73
2018-06-19T18:27:48.188Z,74.35
2018-06-19T18:28:48.194Z,74.16
2018-06-19T18:30:41.112Z,74.35
2018-06-19T18:31:41.142Z,73.48
2018-06-19T18:33:34.077Z,73.77